Station Historical Data
Daily Summary for December 3, 2017 Units:  Both    English   Metric
« Previous Day
Next Day »
Daily Weekly Monthly Yearly Custom
  High: Low: Average:
Temperature: 46.9 °F /  8.3 °C 29.8 °F /  -1.2 °C 38.2 °F /  3.4 °C
Dew Point: 40.1 °F /  4.5 °C 26.4 °F /  -3.1 °C 33.3 °F /  0.7 °C
Humidity: 91% 70% 83%
Wind Speed: 11.0mph /  17.7km/h - 1.8mph /  2.9km/h
Wind Gust: 15.0mph /  24.1km/h - -
Wind- - WSW
Pressure: 30.28 in /  1025.3 hPa 30.14 in /  1020.5 hPa -
Precipitation: 0.00 in /  0 mm    
Historical Graphs
 
 
Tabular Data for December 3, 2017
Time Temperature Dew Point Pressure Wind Wind Speed Wind Gust Humidity Rainfall Rate (Hourly)
00:04 37.7 °F /  3.2 °C 31.5 °F /  -0.3 °C 30.15in /  1020.9hPa Calm     78% 0.00in /  0mm
00:09 37.7 °F /  3.2 °C 31.5 °F /  -0.3 °C 30.16in /  1021.2hPa Calm     78% 0.00in /  0mm
00:14 37.5 °F /  3.1 °C 31.3 °F /  -0.4 °C 30.15in /  1020.9hPa Calm     78% 0.00in /  0mm
00:19 37.5 °F /  3.1 °C 31.6 °F /  -0.2 °C 30.15in /  1020.9hPa Calm     79% 0.00in /  0mm
00:29 37.2 °F /  2.9 °C 31.3 °F /  -0.4 °C 30.15in /  1020.9hPa Calm     79% 0.00in /  0mm
00:34 37.1 °F /  2.8 °C 31.2 °F /  -0.4 °C 30.15in /  1020.9hPa Calm     79% 0.00in /  0mm
00:39 37.1 °F /  2.8 °C 31.2 °F /  -0.4 °C 30.15in /  1020.9hPa Calm     79% 0.00in /  0mm
00:44 36.9 °F /  2.7 °C 31.0 °F /  -0.6 °C 30.14in /  1020.5hPa Calm     79% 0.00in /  0mm
00:49 36.8 °F /  2.7 °C 30.9 °F /  -0.6 °C 30.14in /  1020.5hPa Calm     79% 0.00in /  0mm
00:54 36.5 °F /  2.5 °C 30.9 °F /  -0.6 °C 30.14in /  1020.5hPa Calm     80% 0.00in /  0mm
00:59 36.2 °F /  2.3 °C 30.6 °F /  -0.8 °C 30.15in /  1020.9hPa Calm     80% 0.00in /  0mm
01:09 35.7 °F /  2.1 °C 30.4 °F /  -0.9 °C 30.15in /  1020.9hPa Calm     81% 0.00in /  0mm
01:14 35.6 °F /  2 °C 30.3 °F /  -0.9 °C 30.14in /  1020.5hPa Calm     81% 0.00in /  0mm
01:19 35.5 °F /  1.9 °C 30.5 °F /  -0.8 °C 30.14in /  1020.5hPa Calm     82% 0.00in /  0mm
01:29 35.2 °F /  1.8 °C 30.3 °F /  -0.9 °C 30.15in /  1020.9hPa Calm     82% 0.00in /  0mm
01:34 35.3 °F /  1.8 °C 30.4 °F /  -0.9 °C 30.15in /  1020.9hPa Calm     82% 0.00in /  0mm
01:39 35.2 °F /  1.8 °C 30.3 °F /  -0.9 °C 30.15in /  1020.9hPa Calm     82% 0.00in /  0mm
01:44 35.1 °F /  1.7 °C 30.5 °F /  -0.8 °C 30.15in /  1020.9hPa Calm     83% 0.00in /  0mm
01:49 35.2 °F /  1.8 °C 30.6 °F /  -0.8 °C 30.15in /  1020.9hPa Calm     83% 0.00in /  0mm
01:54 35.3 °F /  1.8 °C 30.7 °F /  -0.7 °C 30.15in /  1020.9hPa Calm     83% 0.00in /  0mm
01:59 35.4 °F /  1.9 °C 30.8 °F /  -0.7 °C 30.15in /  1020.9hPa Calm     83% 0.00in /  0mm
02:09 35.4 °F /  1.9 °C 30.8 °F /  -0.7 °C 30.15in /  1020.9hPa Calm     83% 0.00in /  0mm
02:24 35.3 °F /  1.8 °C 30.7 °F /  -0.7 °C 30.16in /  1021.2hPa Calm     83% 0.00in /  0mm
02:29 35.2 °F /  1.8 °C 30.6 °F /  -0.8 °C 30.16in /  1021.2hPa Calm     83% 0.00in /  0mm
02:34 35.1 °F /  1.7 °C 30.5 °F /  -0.8 °C 30.16in /  1021.2hPa Calm     83% 0.00in /  0mm
02:39 35.0 °F /  1.7 °C 30.7 °F /  -0.7 °C 30.16in /  1021.2hPa Calm     84% 0.00in /  0mm
02:44 35.0 °F /  1.7 °C 30.7 °F /  -0.7 °C 30.16in /  1021.2hPa Calm     84% 0.00in /  0mm
02:49 35.0 °F /  1.7 °C 30.7 °F /  -0.7 °C 30.16in /  1021.2hPa Calm     84% 0.00in /  0mm
02:54 34.9 °F /  1.6 °C 30.6 °F /  -0.8 °C 30.16in /  1021.2hPa Calm     84% 0.00in /  0mm
02:59 34.9 °F /  1.6 °C 30.6 °F /  -0.8 °C 30.16in /  1021.2hPa Calm     84% 0.00in /  0mm
03:09 35.2 °F /  1.8 °C 30.9 °F /  -0.6 °C 30.15in /  1020.9hPa Calm     84% 0.00in /  0mm
03:14 35.3 °F /  1.8 °C 30.7 °F /  -0.7 °C 30.15in /  1020.9hPa Calm     83% 0.00in /  0mm
03:24 35.1 °F /  1.7 °C 30.5 °F /  -0.8 °C 30.15in /  1020.9hPa Calm     83% 0.00in /  0mm
03:34 34.9 °F /  1.6 °C 30.3 °F /  -0.9 °C 30.15in /  1020.9hPa Calm     83% 0.00in /  0mm
03:39 35.0 °F /  1.7 °C 30.4 °F /  -0.9 °C 30.15in /  1020.9hPa Calm     83% 0.00in /  0mm
03:44 34.9 °F /  1.6 °C 30.3 °F /  -0.9 °C 30.15in /  1020.9hPa Calm     83% 0.00in /  0mm
03:54 34.7 °F /  1.5 °C 30.1 °F /  -1.1 °C 30.15in /  1020.9hPa Calm     83% 0.00in /  0mm
03:59 34.6 °F /  1.4 °C 30.0 °F /  -1.1 °C 30.15in /  1020.9hPa Calm     83% 0.00in /  0mm
04:04 34.5 °F /  1.4 °C 29.9 °F /  -1.2 °C 30.15in /  1020.9hPa Calm     83% 0.00in /  0mm
04:14 34.2 °F /  1.2 °C 29.9 °F /  -1.2 °C 30.15in /  1020.9hPa Calm     84% 0.00in /  0mm
04:19 34.0 °F /  1.1 °C 29.7 °F /  -1.3 °C 30.15in /  1020.9hPa Calm     84% 0.00in /  0mm
04:24 33.7 °F /  0.9 °C 29.4 °F /  -1.4 °C 30.14in /  1020.5hPa Calm     84% 0.00in /  0mm
04:29 33.4 °F /  0.8 °C 29.4 °F /  -1.4 °C 30.15in /  1020.9hPa Calm     85% 0.00in /  0mm
04:34 33.1 °F /  0.6 °C 29.1 °F /  -1.6 °C 30.14in /  1020.5hPa Calm     85% 0.00in /  0mm
04:39 33.2 °F /  0.7 °C 29.2 °F /  -1.6 °C 30.14in /  1020.5hPa Calm     85% 0.00in /  0mm
04:44 33.2 °F /  0.7 °C 29.5 °F /  -1.4 °C 30.14in /  1020.5hPa Calm     86% 0.00in /  0mm
04:49 33.2 °F /  0.7 °C 29.5 °F /  -1.4 °C 30.14in /  1020.5hPa Calm     86% 0.00in /  0mm
04:54 33.1 °F /  0.6 °C 29.4 °F /  -1.4 °C 30.14in /  1020.5hPa Calm     86% 0.00in /  0mm
04:59 32.9 °F /  0.5 °C 29.2 °F /  -1.6 °C 30.14in /  1020.5hPa Calm     86% 0.00in /  0mm
05:04 32.5 °F /  0.3 °C 28.8 °F /  -1.8 °C 30.14in /  1020.5hPa Calm     86% 0.00in /  0mm
05:09 32.2 °F /  0.1 °C 28.5 °F /  -1.9 °C 30.14in /  1020.5hPa Calm     86% 0.00in /  0mm
05:14 32.0 °F /  0 °C 28.3 °F /  -2.1 °C 30.14in /  1020.5hPa Calm     86% 0.00in /  0mm
05:19 31.7 °F /  -0.2 °C 28.0 °F /  -2.2 °C 30.14in /  1020.5hPa Calm     86% 0.00in /  0mm
05:24 31.7 °F /  -0.2 °C 28.3 °F /  -2.1 °C 30.14in /  1020.5hPa Calm     87% 0.00in /  0mm
05:29 31.7 °F /  -0.2 °C 28.3 °F /  -2.1 °C 30.14in /  1020.5hPa Calm     87% 0.00in /  0mm
05:34 31.8 °F /  -0.1 °C 28.4 °F /  -2 °C 30.14in /  1020.5hPa Calm     87% 0.00in /  0mm
05:39 31.7 °F /  -0.2 °C 28.3 °F /  -2.1 °C 30.14in /  1020.5hPa Calm     87% 0.00in /  0mm
05:44 31.6 °F /  -0.2 °C 28.2 °F /  -2.1 °C 30.14in /  1020.5hPa Calm     87% 0.00in /  0mm
05:49 31.8 °F /  -0.1 °C 28.4 °F /  -2 °C 30.14in /  1020.5hPa Calm     87% 0.00in /  0mm
05:54 32.0 °F /  0 °C 28.6 °F /  -1.9 °C 30.14in /  1020.5hPa Calm     87% 0.00in /  0mm
05:59 32.0 °F /  0 °C 28.6 °F /  -1.9 °C 30.14in /  1020.5hPa Calm     87% 0.00in /  0mm
06:04 31.8 °F /  -0.1 °C 28.4 °F /  -2 °C 30.14in /  1020.5hPa Calm     87% 0.00in /  0mm
06:09 31.6 °F /  -0.2 °C 28.2 °F /  -2.1 °C 30.14in /  1020.5hPa Calm     87% 0.00in /  0mm
06:14 31.4 °F /  -0.3 °C 28.0 °F /  -2.2 °C 30.15in /  1020.9hPa Calm     87% 0.00in /  0mm
06:19 31.0 °F /  -0.6 °C 27.6 °F /  -2.4 °C 30.15in /  1020.9hPa Calm     87% 0.00in /  0mm
06:24 30.8 °F /  -0.7 °C 27.4 °F /  -2.6 °C 30.15in /  1020.9hPa Calm     87% 0.00in /  0mm
06:29 30.6 °F /  -0.8 °C 27.2 °F /  -2.7 °C 30.15in /  1020.9hPa Calm     87% 0.00in /  0mm
06:34 30.4 °F /  -0.9 °C 27.0 °F /  -2.8 °C 30.15in /  1020.9hPa Calm     87% 0.00in /  0mm
06:39 30.3 °F /  -0.9 °C 26.9 °F /  -2.8 °C 30.16in /  1021.2hPa Calm     87% 0.00in /  0mm
06:44 30.3 °F /  -0.9 °C 26.9 °F /  -2.8 °C 30.16in /  1021.2hPa Calm     87% 0.00in /  0mm
06:49 30.0 °F /  -1.1 °C 26.6 °F /  -3 °C 30.16in /  1021.2hPa Calm     87% 0.00in /  0mm
06:54 29.9 °F /  -1.2 °C 26.5 °F /  -3.1 °C 30.16in /  1021.2hPa Calm     87% 0.00in /  0mm
06:59 29.8 °F /  -1.2 °C 26.4 °F /  -3.1 °C 30.16in /  1021.2hPa Calm     87% 0.00in /  0mm
07:04 29.8 °F /  -1.2 °C 26.4 °F /  -3.1 °C 30.16in /  1021.2hPa Calm     87% 0.00in /  0mm
07:09 30.6 °F /  -0.8 °C 27.5 °F /  -2.5 °C 30.16in /  1021.2hPa Calm     88% 0.00in /  0mm
07:14 30.9 °F /  -0.6 °C 27.8 °F /  -2.3 °C 30.16in /  1021.2hPa Calm     88% 0.00in /  0mm
07:19 31.0 °F /  -0.6 °C 27.9 °F /  -2.3 °C 30.16in /  1021.2hPa Calm     88% 0.00in /  0mm
07:24 31.0 °F /  -0.6 °C 27.9 °F /  -2.3 °C 30.16in /  1021.2hPa Calm     88% 0.00in /  0mm
07:29 30.8 °F /  -0.7 °C 27.7 °F /  -2.4 °C 30.16in /  1021.2hPa Calm     88% 0.00in /  0mm
07:34 30.7 °F /  -0.7 °C 27.6 °F /  -2.4 °C 30.16in /  1021.2hPa Calm     88% 0.00in /  0mm
07:39 30.9 °F /  -0.6 °C 27.8 °F /  -2.3 °C 30.17in /  1021.6hPa Calm     88% 0.00in /  0mm
07:44 31.0 °F /  -0.6 °C 27.9 °F /  -2.3 °C 30.16in /  1021.2hPa Calm     88% 0.00in /  0mm
07:49 30.9 °F /  -0.6 °C 27.8 °F /  -2.3 °C 30.16in /  1021.2hPa Calm     88% 0.00in /  0mm
07:54 31.0 °F /  -0.6 °C 27.9 °F /  -2.3 °C 30.16in /  1021.2hPa Calm     88% 0.00in /  0mm
07:59 30.9 °F /  -0.6 °C 27.8 °F /  -2.3 °C 30.16in /  1021.2hPa Calm     88% 0.00in /  0mm
08:04 30.8 °F /  -0.7 °C 27.7 °F /  -2.4 °C 30.16in /  1021.2hPa Calm     88% 0.00in /  0mm
08:09 31.4 °F /  -0.3 °C 28.5 °F /  -1.9 °C 30.17in /  1021.6hPa Calm     89% 0.00in /  0mm
08:14 31.7 °F /  -0.2 °C 28.8 °F /  -1.8 °C 30.17in /  1021.6hPa Calm     89% 0.00in /  0mm
08:19 32.2 °F /  0.1 °C 29.3 °F /  -1.5 °C 30.17in /  1021.6hPa Calm     89% 0.00in /  0mm
08:24 32.6 °F /  0.3 °C 29.7 °F /  -1.3 °C 30.17in /  1021.6hPa Calm     89% 0.00in /  0mm
08:29 33.0 °F /  0.6 °C 29.8 °F /  -1.2 °C 30.18in /  1021.9hPa Calm     88% 0.00in /  0mm
08:34 33.4 °F /  0.8 °C 30.2 °F /  -1 °C 30.18in /  1021.9hPa Calm     88% 0.00in /  0mm
08:39 33.9 °F /  1.1 °C 30.7 °F /  -0.7 °C 30.18in /  1021.9hPa Calm     88% 0.00in /  0mm
08:44 34.6 °F /  1.4 °C 31.1 °F /  -0.5 °C 30.18in /  1021.9hPa Calm     87% 0.00in /  0mm
08:49 35.2 °F /  1.8 °C 31.4 °F /  -0.3 °C 30.18in /  1021.9hPa Calm     86% 0.00in /  0mm
08:54 35.7 °F /  2.1 °C 31.6 °F /  -0.2 °C 30.18in /  1021.9hPa Calm     85% 0.00in /  0mm
08:59 36.1 °F /  2.3 °C 31.7 °F /  -0.2 °C 30.18in /  1021.9hPa Calm     84% 0.00in /  0mm
09:04 36.6 °F /  2.6 °C 31.9 °F /  -0.1 °C 30.18in /  1021.9hPa Calm     83% 0.00in /  0mm
09:09 37.2 °F /  2.9 °C 32.2 °F /  0.1 °C 30.18in /  1021.9hPa Calm     82% 0.00in /  0mm
09:14 37.8 °F /  3.2 °C 32.5 °F /  0.3 °C 30.18in /  1021.9hPa Calm     81% 0.00in /  0mm
09:19 38.2 °F /  3.4 °C 32.6 °F /  0.3 °C 30.18in /  1021.9hPa Calm     80% 0.00in /  0mm
09:24 38.6 °F /  3.7 °C 33.0 °F /  0.6 °C 30.18in /  1021.9hPa SSW 2.0mph /  3.2km/h 4.0mph /  6.4km/h 80% 0.00in /  0mm
09:29 39.1 °F /  3.9 °C 33.1 °F /  0.6 °C 30.18in /  1021.9hPa SSW 4.0mph /  6.4km/h 4.0mph /  6.4km/h 79% 0.00in /  0mm
09:34 39.5 °F /  4.2 °C 33.2 °F /  0.7 °C 30.18in /  1021.9hPa SSW 2.0mph /  3.2km/h 4.0mph /  6.4km/h 78% 0.00in /  0mm
09:39 40.1 °F /  4.5 °C 33.5 °F /  0.8 °C 30.18in /  1021.9hPa South 2.0mph /  3.2km/h 5.0mph /  8km/h 77% 0.00in /  0mm
09:44 40.7 °F /  4.8 °C 33.7 °F /  0.9 °C 30.18in /  1021.9hPa SSW 2.0mph /  3.2km/h 5.0mph /  8km/h 76% 0.00in /  0mm
09:49 41.5 °F /  5.3 °C 34.2 °F /  1.2 °C 30.19in /  1022.2hPa SSW 2.0mph /  3.2km/h 5.0mph /  8km/h 75% 0.00in /  0mm
09:54 41.9 °F /  5.5 °C 34.2 °F /  1.2 °C 30.19in /  1022.2hPa SSW 2.0mph /  3.2km/h 6.0mph /  9.7km/h 74% 0.00in /  0mm
09:59 42.4 °F /  5.8 °C 34.4 °F /  1.3 °C 30.19in /  1022.2hPa SW 3.0mph /  4.8km/h 7.0mph /  11.3km/h 73% 0.00in /  0mm
10:04 43.1 °F /  6.2 °C 35.0 °F /  1.7 °C 30.19in /  1022.2hPa SW 5.0mph /  8km/h 7.0mph /  11.3km/h 73% 0.00in /  0mm
10:09 43.4 °F /  6.3 °C 35.0 °F /  1.7 °C 30.19in /  1022.2hPa WSW 2.0mph /  3.2km/h 8.0mph /  12.9km/h 72% 0.00in /  0mm
10:14 44.0 °F /  6.7 °C 35.2 °F /  1.8 °C 30.19in /  1022.2hPa SW 3.0mph /  4.8km/h 8.0mph /  12.9km/h 71% 0.00in /  0mm
10:19 44.3 °F /  6.8 °C 35.1 °F /  1.7 °C 30.19in /  1022.2hPa SW 1.0mph /  1.6km/h 7.0mph /  11.3km/h 70% 0.00in /  0mm
10:24 44.5 °F /  6.9 °C 35.7 °F /  2.1 °C 30.19in /  1022.2hPa SW 7.0mph /  11.3km/h 9.0mph /  14.5km/h 71% 0.00in /  0mm
10:29 44.6 °F /  7 °C 35.8 °F /  2.1 °C 30.19in /  1022.2hPa South 6.0mph /  9.7km/h 11.0mph /  17.7km/h 71% 0.00in /  0mm
10:34 44.8 °F /  7.1 °C 36.0 °F /  2.2 °C 30.19in /  1022.2hPa SSW 6.0mph /  9.7km/h 10.0mph /  16.1km/h 71% 0.00in /  0mm
10:39 44.8 °F /  7.1 °C 36.3 °F /  2.4 °C 30.19in /  1022.2hPa SW 5.0mph /  8km/h 10.0mph /  16.1km/h 72% 0.00in /  0mm
10:44 45.1 °F /  7.3 °C 36.3 °F /  2.4 °C 30.19in /  1022.2hPa SW 5.0mph /  8km/h 9.0mph /  14.5km/h 71% 0.00in /  0mm
10:49 45.6 °F /  7.6 °C 37.1 °F /  2.8 °C 30.19in /  1022.2hPa SW 4.0mph /  6.4km/h 10.0mph /  16.1km/h 72% 0.00in /  0mm
10:54 45.6 °F /  7.6 °C 36.7 °F /  2.6 °C 30.19in /  1022.2hPa SW 9.0mph /  14.5km/h 10.0mph /  16.1km/h 71% 0.00in /  0mm
10:59 45.6 °F /  7.6 °C 36.7 °F /  2.6 °C 30.19in /  1022.2hPa West 4.0mph /  6.4km/h 10.0mph /  16.1km/h 71% 0.00in /  0mm
11:04 46.2 °F /  7.9 °C 37.7 °F /  3.2 °C 30.19in /  1022.2hPa WSW 4.0mph /  6.4km/h 8.0mph /  12.9km/h 72% 0.00in /  0mm
11:09 46.2 °F /  7.9 °C 37.3 °F /  2.9 °C 30.19in /  1022.2hPa WSW 5.0mph /  8km/h 10.0mph /  16.1km/h 71% 0.00in /  0mm
11:14 45.9 °F /  7.7 °C 37.4 °F /  3 °C 30.19in /  1022.2hPa SW 6.0mph /  9.7km/h 10.0mph /  16.1km/h 72% 0.00in /  0mm
11:19 46.0 °F /  7.8 °C 37.5 °F /  3.1 °C 30.18in /  1021.9hPa WSW 6.0mph /  9.7km/h 9.0mph /  14.5km/h 72% 0.00in /  0mm
11:24 46.2 °F /  7.9 °C 38.0 °F /  3.3 °C 30.18in /  1021.9hPa West 5.0mph /  8km/h 8.0mph /  12.9km/h 73% 0.00in /  0mm
11:29 46.1 °F /  7.8 °C 37.6 °F /  3.1 °C 30.18in /  1021.9hPa SW 3.0mph /  4.8km/h 8.0mph /  12.9km/h 72% 0.00in /  0mm
11:34 45.6 °F /  7.6 °C 37.4 °F /  3 °C 30.18in /  1021.9hPa SW 4.0mph /  6.4km/h 9.0mph /  14.5km/h 73% 0.00in /  0mm
11:39 45.7 °F /  7.6 °C 37.9 °F /  3.3 °C 30.18in /  1021.9hPa SW 5.0mph /  8km/h 10.0mph /  16.1km/h 74% 0.00in /  0mm
11:44 46.0 °F /  7.8 °C 38.2 °F /  3.4 °C 30.18in /  1021.9hPa SW 5.0mph /  8km/h 15.0mph /  24.1km/h 74% 0.00in /  0mm
11:49 46.1 °F /  7.8 °C 38.3 °F /  3.5 °C 30.18in /  1021.9hPa WSW 6.0mph /  9.7km/h 15.0mph /  24.1km/h 74% 0.00in /  0mm
11:54 46.2 °F /  7.9 °C 38.4 °F /  3.6 °C 30.18in /  1021.9hPa West 5.0mph /  8km/h 11.0mph /  17.7km/h 74% 0.00in /  0mm
11:59 46.1 °F /  7.8 °C 38.6 °F /  3.7 °C 30.18in /  1021.9hPa SSW 7.0mph /  11.3km/h 10.0mph /  16.1km/h 75% 0.00in /  0mm
12:04 46.7 °F /  8.2 °C 39.2 °F /  4 °C 30.18in /  1021.9hPa WSW 4.0mph /  6.4km/h 11.0mph /  17.7km/h 75% 0.00in /  0mm
12:09 46.9 °F /  8.3 °C 39.4 °F /  4.1 °C 30.18in /  1021.9hPa SW 8.0mph /  12.9km/h 8.0mph /  12.9km/h 75% 0.00in /  0mm
12:14 46.7 °F /  8.2 °C 39.2 °F /  4 °C 30.18in /  1021.9hPa WSW 5.0mph /  8km/h 12.0mph /  19.3km/h 75% 0.00in /  0mm
12:19 46.2 °F /  7.9 °C 38.7 °F /  3.7 °C 30.18in /  1021.9hPa WSW 7.0mph /  11.3km/h 13.0mph /  20.9km/h 75% 0.00in /  0mm
12:24 46.0 °F /  7.8 °C 39.2 °F /  4 °C 30.18in /  1021.9hPa WSW 7.0mph /  11.3km/h 13.0mph /  20.9km/h 77% 0.00in /  0mm
12:29 45.9 °F /  7.7 °C 39.1 °F /  3.9 °C 30.17in /  1021.6hPa WSW 7.0mph /  11.3km/h 12.0mph /  19.3km/h 77% 0.00in /  0mm
12:34 45.9 °F /  7.7 °C 39.4 °F /  4.1 °C 30.17in /  1021.6hPa WSW 5.0mph /  8km/h 13.0mph /  20.9km/h 78% 0.00in /  0mm
12:39 46.0 °F /  7.8 °C 39.5 °F /  4.2 °C 30.18in /  1021.9hPa WSW 6.0mph /  9.7km/h 13.0mph /  20.9km/h 78% 0.00in /  0mm
12:44 45.8 °F /  7.7 °C 39.3 °F /  4.1 °C 30.18in /  1021.9hPa WSW 6.0mph /  9.7km/h 12.0mph /  19.3km/h 78% 0.00in /  0mm
12:49 45.7 °F /  7.6 °C 39.2 °F /  4 °C 30.17in /  1021.6hPa WSW 7.0mph /  11.3km/h 13.0mph /  20.9km/h 78% 0.00in /  0mm
12:54 45.7 °F /  7.6 °C 39.6 °F /  4.2 °C 30.17in /  1021.6hPa WSW 7.0mph /  11.3km/h 13.0mph /  20.9km/h 79% 0.00in /  0mm
12:59 46.0 °F /  7.8 °C 39.9 °F /  4.4 °C 30.17in /  1021.6hPa WSW 5.0mph /  8km/h 13.0mph /  20.9km/h 79% 0.00in /  0mm
13:04 46.1 °F /  7.8 °C 39.9 °F /  4.4 °C 30.17in /  1021.6hPa SW 10.0mph /  16.1km/h 11.0mph /  17.7km/h 79% 0.00in /  0mm
13:09 46.1 °F /  7.8 °C 39.3 °F /  4.1 °C 30.17in /  1021.6hPa WSW 4.0mph /  6.4km/h 13.0mph /  20.9km/h 77% 0.00in /  0mm
13:14 46.3 °F /  7.9 °C 39.5 °F /  4.2 °C 30.17in /  1021.6hPa SW 9.0mph /  14.5km/h 11.0mph /  17.7km/h 77% 0.00in /  0mm
13:19 46.5 °F /  8.1 °C 40.0 °F /  4.4 °C 30.17in /  1021.6hPa SW 5.0mph /  8km/h 9.0mph /  14.5km/h 78% 0.00in /  0mm
13:24 46.4 °F /  8 °C 39.9 °F /  4.4 °C 30.17in /  1021.6hPa WSW 3.0mph /  4.8km/h 11.0mph /  17.7km/h 78% 0.00in /  0mm
13:29 46.3 °F /  7.9 °C 39.8 °F /  4.3 °C 30.18in /  1021.9hPa SW 11.0mph /  17.7km/h 12.0mph /  19.3km/h 78% 0.00in /  0mm
13:34 46.3 °F /  7.9 °C 39.8 °F /  4.3 °C 30.18in /  1021.9hPa WSW 6.0mph /  9.7km/h 12.0mph /  19.3km/h 78% 0.00in /  0mm
13:39 46.2 °F /  7.9 °C 39.4 °F /  4.1 °C 30.18in /  1021.9hPa WSW 6.0mph /  9.7km/h 12.0mph /  19.3km/h 77% 0.00in /  0mm
13:44 46.3 °F /  7.9 °C 39.8 °F /  4.3 °C 30.18in /  1021.9hPa WSW 6.0mph /  9.7km/h 12.0mph /  19.3km/h 78% 0.00in /  0mm
13:49 46.1 °F /  7.8 °C 39.9 °F /  4.4 °C 30.17in /  1021.6hPa SW 5.0mph /  8km/h 12.0mph /  19.3km/h 79% 0.00in /  0mm
13:54 46.1 °F /  7.8 °C 39.9 °F /  4.4 °C 30.18in /  1021.9hPa SW 6.0mph /  9.7km/h 13.0mph /  20.9km/h 79% 0.00in /  0mm
13:59 46.1 °F /  7.8 °C 39.6 °F /  4.2 °C 30.17in /  1021.6hPa SSW 7.0mph /  11.3km/h 14.0mph /  22.5km/h 78% 0.00in /  0mm
14:04 46.3 °F /  7.9 °C 39.8 °F /  4.3 °C 30.17in /  1021.6hPa SW 3.0mph /  4.8km/h 8.0mph /  12.9km/h 78% 0.00in /  0mm
14:09 46.5 °F /  8.1 °C 40.0 °F /  4.4 °C 30.17in /  1021.6hPa WSW 5.0mph /  8km/h 8.0mph /  12.9km/h 78% 0.00in /  0mm
14:14 46.8 °F /  8.2 °C 40.0 °F /  4.4 °C 30.17in /  1021.6hPa SW 5.0mph /  8km/h 12.0mph /  19.3km/h 77% 0.00in /  0mm
14:19 46.4 °F /  8 °C 39.6 °F /  4.2 °C 30.17in /  1021.6hPa SW 4.0mph /  6.4km/h 13.0mph /  20.9km/h 77% 0.00in /  0mm
14:24 46.4 °F /  8 °C 39.6 °F /  4.2 °C 30.17in /  1021.6hPa WSW 5.0mph /  8km/h 15.0mph /  24.1km/h 77% 0.00in /  0mm
14:29 46.4 °F /  8 °C 39.6 °F /  4.2 °C 30.17in /  1021.6hPa WSW 10.0mph /  16.1km/h 12.0mph /  19.3km/h 77% 0.00in /  0mm
14:34 46.3 °F /  7.9 °C 39.5 °F /  4.2 °C 30.17in /  1021.6hPa West 5.0mph /  8km/h 12.0mph /  19.3km/h 77% 0.00in /  0mm
14:39 46.2 °F /  7.9 °C 39.7 °F /  4.3 °C 30.17in /  1021.6hPa WSW 4.0mph /  6.4km/h 11.0mph /  17.7km/h 78% 0.00in /  0mm
14:44 46.2 °F /  7.9 °C 39.7 °F /  4.3 °C 30.17in /  1021.6hPa WSW 5.0mph /  8km/h 11.0mph /  17.7km/h 78% 0.00in /  0mm
14:49 46.1 °F /  7.8 °C 39.6 °F /  4.2 °C 30.17in /  1021.6hPa WSW 5.0mph /  8km/h 11.0mph /  17.7km/h 78% 0.00in /  0mm
14:54 46.2 °F /  7.9 °C 39.4 °F /  4.1 °C 30.17in /  1021.6hPa WSW 5.0mph /  8km/h 10.0mph /  16.1km/h 77% 0.00in /  0mm
14:59 46.5 °F /  8.1 °C 39.7 °F /  4.3 °C 30.18in /  1021.9hPa SW 5.0mph /  8km/h 10.0mph /  16.1km/h 77% 0.00in /  0mm
15:04 46.9 °F /  8.3 °C 40.1 °F /  4.5 °C 30.18in /  1021.9hPa SW 5.0mph /  8km/h 11.0mph /  17.7km/h 77% 0.00in /  0mm
15:09 46.7 °F /  8.2 °C 39.5 °F /  4.2 °C 30.18in /  1021.9hPa West 6.0mph /  9.7km/h 15.0mph /  24.1km/h 76% 0.00in /  0mm
15:14 46.5 °F /  8.1 °C 39.0 °F /  3.9 °C 30.18in /  1021.9hPa South 6.0mph /  9.7km/h 9.0mph /  14.5km/h 75% 0.00in /  0mm
15:19 46.3 °F /  7.9 °C 39.1 °F /  3.9 °C 30.19in /  1022.2hPa WSW 5.0mph /  8km/h 9.0mph /  14.5km/h 76% 0.00in /  0mm
15:24 46.0 °F /  7.8 °C 38.5 °F /  3.6 °C 30.19in /  1022.2hPa SW 6.0mph /  9.7km/h 11.0mph /  17.7km/h 75% 0.00in /  0mm
15:29 45.9 °F /  7.7 °C 38.8 °F /  3.8 °C 30.18in /  1021.9hPa WSW 6.0mph /  9.7km/h 11.0mph /  17.7km/h 76% 0.00in /  0mm
15:34 45.7 °F /  7.6 °C 38.9 °F /  3.8 °C 30.18in /  1021.9hPa WSW 8.0mph /  12.9km/h 13.0mph /  20.9km/h 77% 0.00in /  0mm
15:39 45.5 °F /  7.5 °C 38.7 °F /  3.7 °C 30.18in /  1021.9hPa SW 7.0mph /  11.3km/h 11.0mph /  17.7km/h 77% 0.00in /  0mm
15:44 45.3 °F /  7.4 °C 38.5 °F /  3.6 °C 30.19in /  1022.2hPa West 5.0mph /  8km/h 10.0mph /  16.1km/h 77% 0.00in /  0mm
15:49 45.2 °F /  7.3 °C 38.7 °F /  3.7 °C 30.19in /  1022.2hPa SW 6.0mph /  9.7km/h 10.0mph /  16.1km/h 78% 0.00in /  0mm
15:54 45.2 °F /  7.3 °C 38.7 °F /  3.7 °C 30.18in /  1021.9hPa SW 6.0mph /  9.7km/h 11.0mph /  17.7km/h 78% 0.00in /  0mm
15:59 44.9 °F /  7.2 °C 38.5 °F /  3.6 °C 30.18in /  1021.9hPa SW 9.0mph /  14.5km/h 10.0mph /  16.1km/h 78% 0.00in /  0mm
16:04 44.8 °F /  7.1 °C 38.4 °F /  3.6 °C 30.19in /  1022.2hPa WSW 4.0mph /  6.4km/h 13.0mph /  20.9km/h 78% 0.00in /  0mm
16:09 44.7 °F /  7.1 °C 38.3 °F /  3.5 °C 30.19in /  1022.2hPa WSW 4.0mph /  6.4km/h 11.0mph /  17.7km/h 78% 0.00in /  0mm
16:14 44.7 °F /  7.1 °C 38.3 °F /  3.5 °C 30.19in /  1022.2hPa SW 4.0mph /  6.4km/h 9.0mph /  14.5km/h 78% 0.00in /  0mm
16:19 44.5 °F /  6.9 °C 38.1 °F /  3.4 °C 30.20in /  1022.6hPa WSW 5.0mph /  8km/h 9.0mph /  14.5km/h 78% 0.00in /  0mm
16:24 44.3 °F /  6.8 °C 37.9 °F /  3.3 °C 30.20in /  1022.6hPa WSW 4.0mph /  6.4km/h 9.0mph /  14.5km/h 78% 0.00in /  0mm
16:29 44.1 °F /  6.7 °C 38.0 °F /  3.3 °C 30.20in /  1022.6hPa WSW 5.0mph /  8km/h 10.0mph /  16.1km/h 79% 0.00in /  0mm
16:34 44.0 °F /  6.7 °C 37.9 °F /  3.3 °C 30.20in /  1022.6hPa WSW 5.0mph /  8km/h 12.0mph /  19.3km/h 79% 0.00in /  0mm
16:39 44.0 °F /  6.7 °C 37.9 °F /  3.3 °C 30.20in /  1022.6hPa WSW 5.0mph /  8km/h 12.0mph /  19.3km/h 79% 0.00in /  0mm
16:44 43.9 °F /  6.6 °C 37.5 °F /  3.1 °C 30.20in /  1022.6hPa SW 9.0mph /  14.5km/h 12.0mph /  19.3km/h 78% 0.00in /  0mm
16:54 43.6 °F /  6.4 °C 37.2 °F /  2.9 °C 30.20in /  1022.6hPa WSW 4.0mph /  6.4km/h 10.0mph /  16.1km/h 78% 0.00in /  0mm
16:59 43.4 °F /  6.3 °C 37.0 °F /  2.8 °C 30.20in /  1022.6hPa SW 3.0mph /  4.8km/h 8.0mph /  12.9km/h 78% 0.00in /  0mm
17:04 43.1 °F /  6.2 °C 37.0 °F /  2.8 °C 30.20in /  1022.6hPa WSW 4.0mph /  6.4km/h 6.0mph /  9.7km/h 79% 0.00in /  0mm
17:09 43.0 °F /  6.1 °C 36.9 °F /  2.7 °C 30.20in /  1022.6hPa WSW 1.0mph /  1.6km/h 4.0mph /  6.4km/h 79% 0.00in /  0mm
17:14 42.7 °F /  5.9 °C 36.6 °F /  2.6 °C 30.20in /  1022.6hPa WSW 1.0mph /  1.6km/h 5.0mph /  8km/h 79% 0.00in /  0mm
17:19 42.4 °F /  5.8 °C 36.7 °F /  2.6 °C 30.20in /  1022.6hPa WSW 1.0mph /  1.6km/h 3.0mph /  4.8km/h 80% 0.00in /  0mm
17:24 42.2 °F /  5.7 °C 36.5 °F /  2.5 °C 30.20in /  1022.6hPa WSW 1.0mph /  1.6km/h 3.0mph /  4.8km/h 80% 0.00in /  0mm
17:29 42.0 °F /  5.6 °C 36.6 °F /  2.6 °C 30.20in /  1022.6hPa WSW 2.0mph /  3.2km/h 4.0mph /  6.4km/h 81% 0.00in /  0mm
17:34 42.1 °F /  5.6 °C 36.7 °F /  2.6 °C 30.20in /  1022.6hPa WSW 2.0mph /  3.2km/h 4.0mph /  6.4km/h 81% 0.00in /  0mm
17:39 41.8 °F /  5.4 °C 36.4 °F /  2.4 °C 30.20in /  1022.6hPa WSW 1.0mph /  1.6km/h 3.0mph /  4.8km/h 81% 0.00in /  0mm
17:44 41.4 °F /  5.2 °C 36.0 °F /  2.2 °C 30.21in /  1022.9hPa Calm     81% 0.00in /  0mm
17:49 40.9 °F /  4.9 °C 35.8 °F /  2.1 °C 30.21in /  1022.9hPa Calm     82% 0.00in /  0mm
17:54 40.4 °F /  4.7 °C 35.3 °F /  1.8 °C 30.21in /  1022.9hPa Calm     82% 0.00in /  0mm
17:59 40.3 °F /  4.6 °C 35.5 °F /  1.9 °C 30.21in /  1022.9hPa Calm   2.0mph /  3.2km/h 83% 0.00in /  0mm
18:04 39.9 °F /  4.4 °C 35.2 °F /  1.8 °C 30.21in /  1022.9hPa Calm     83% 0.00in /  0mm
18:09 39.6 °F /  4.2 °C 35.2 °F /  1.8 °C 30.22in /  1023.2hPa Calm     84% 0.00in /  0mm
18:14 39.4 °F /  4.1 °C 35.0 °F /  1.7 °C 30.22in /  1023.2hPa Calm     84% 0.00in /  0mm
18:19 39.3 °F /  4.1 °C 35.2 °F /  1.8 °C 30.22in /  1023.2hPa Calm     85% 0.00in /  0mm
18:24 39.3 °F /  4.1 °C 35.2 °F /  1.8 °C 30.22in /  1023.2hPa Calm     85% 0.00in /  0mm
18:29 39.5 °F /  4.2 °C 35.7 °F /  2.1 °C 30.23in /  1023.6hPa Calm   3.0mph /  4.8km/h 86% 0.00in /  0mm
18:34 40.1 °F /  4.5 °C 36.5 °F /  2.5 °C 30.23in /  1023.6hPa West 1.0mph /  1.6km/h 5.0mph /  8km/h 87% 0.00in /  0mm
18:39 40.4 °F /  4.7 °C 36.5 °F /  2.5 °C 30.23in /  1023.6hPa Calm   4.0mph /  6.4km/h 86% 0.00in /  0mm
18:44 40.6 °F /  4.8 °C 37.0 °F /  2.8 °C 30.23in /  1023.6hPa West 2.0mph /  3.2km/h 4.0mph /  6.4km/h 87% 0.00in /  0mm
18:49 40.7 °F /  4.8 °C 37.1 °F /  2.8 °C 30.24in /  1023.9hPa WNW 1.0mph /  1.6km/h 4.0mph /  6.4km/h 87% 0.00in /  0mm
18:54 40.6 °F /  4.8 °C 36.7 °F /  2.6 °C 30.24in /  1023.9hPa Calm   3.0mph /  4.8km/h 86% 0.00in /  0mm
18:59 40.5 °F /  4.7 °C 36.6 °F /  2.6 °C 30.24in /  1023.9hPa Calm   3.0mph /  4.8km/h 86% 0.00in /  0mm
19:04 40.3 °F /  4.6 °C 36.4 °F /  2.4 °C 30.24in /  1023.9hPa Calm     86% 0.00in /  0mm
19:09 40.2 °F /  4.6 °C 36.3 °F /  2.4 °C 30.24in /  1023.9hPa Calm     86% 0.00in /  0mm
19:14 39.8 °F /  4.3 °C 36.0 °F /  2.2 °C 30.24in /  1023.9hPa Calm     86% 0.00in /  0mm
19:19 39.0 °F /  3.9 °C 35.2 °F /  1.8 °C 30.25in /  1024.3hPa Calm     86% 0.00in /  0mm
19:24 38.5 °F /  3.6 °C 34.7 °F /  1.5 °C 30.25in /  1024.3hPa Calm     86% 0.00in /  0mm
19:29 38.3 °F /  3.5 °C 34.8 °F /  1.6 °C 30.25in /  1024.3hPa Calm     87% 0.00in /  0mm
19:34 38.0 °F /  3.3 °C 34.5 °F /  1.4 °C 30.25in /  1024.3hPa Calm     87% 0.00in /  0mm
19:39 37.8 °F /  3.2 °C 34.3 °F /  1.3 °C 30.25in /  1024.3hPa Calm     87% 0.00in /  0mm
19:44 37.4 °F /  3 °C 33.9 °F /  1.1 °C 30.26in /  1024.6hPa Calm     87% 0.00in /  0mm
19:49 37.0 °F /  2.8 °C 33.5 °F /  0.8 °C 30.26in /  1024.6hPa Calm     87% 0.00in /  0mm
19:54 36.7 °F /  2.6 °C 33.5 °F /  0.8 °C 30.26in /  1024.6hPa Calm     88% 0.00in /  0mm
19:59 36.4 °F /  2.4 °C 33.2 °F /  0.7 °C 30.26in /  1024.6hPa Calm     88% 0.00in /  0mm
20:04 36.0 °F /  2.2 °C 32.8 °F /  0.4 °C 30.26in /  1024.6hPa Calm     88% 0.00in /  0mm
20:09 35.6 °F /  2 °C 32.4 °F /  0.2 °C 30.26in /  1024.6hPa Calm     88% 0.00in /  0mm
20:14 35.2 °F /  1.8 °C 32.0 °F /  0 °C 30.26in /  1024.6hPa Calm     88% 0.00in /  0mm
20:19 34.8 °F /  1.6 °C 31.6 °F /  -0.2 °C 30.26in /  1024.6hPa Calm     88% 0.00in /  0mm
20:24 34.6 °F /  1.4 °C 31.4 °F /  -0.3 °C 30.26in /  1024.6hPa Calm     88% 0.00in /  0mm
20:29 34.6 °F /  1.4 °C 31.7 °F /  -0.2 °C 30.26in /  1024.6hPa Calm     89% 0.00in /  0mm
20:34 34.4 °F /  1.3 °C 31.5 °F /  -0.3 °C 30.26in /  1024.6hPa Calm     89% 0.00in /  0mm
20:39 34.5 °F /  1.4 °C 31.6 °F /  -0.2 °C 30.26in /  1024.6hPa Calm     89% 0.00in /  0mm
20:44 34.3 °F /  1.3 °C 31.4 °F /  -0.3 °C 30.27in /  1024.9hPa Calm     89% 0.00in /  0mm
20:49 34.0 °F /  1.1 °C 31.1 °F /  -0.5 °C 30.27in /  1024.9hPa Calm     89% 0.00in /  0mm
20:54 33.7 °F /  0.9 °C 30.8 °F /  -0.7 °C 30.27in /  1024.9hPa Calm     89% 0.00in /  0mm
20:59 33.4 °F /  0.8 °C 30.5 °F /  -0.8 °C 30.27in /  1024.9hPa Calm     89% 0.00in /  0mm
21:04 33.4 °F /  0.8 °C 30.5 °F /  -0.8 °C 30.27in /  1024.9hPa Calm     89% 0.00in /  0mm
21:09 33.3 °F /  0.7 °C 30.4 °F /  -0.9 °C 30.27in /  1024.9hPa Calm     89% 0.00in /  0mm
21:14 33.2 °F /  0.7 °C 30.3 °F /  -0.9 °C 30.27in /  1024.9hPa Calm     89% 0.00in /  0mm
21:19 33.2 °F /  0.7 °C 30.6 °F /  -0.8 °C 30.27in /  1024.9hPa Calm     90% 0.00in /  0mm
21:24 33.4 °F /  0.8 °C 30.8 °F /  -0.7 °C 30.27in /  1024.9hPa Calm     90% 0.00in /  0mm
21:29 33.0 °F /  0.6 °C 30.1 °F /  -1.1 °C 30.27in /  1024.9hPa Calm     89% 0.00in /  0mm
21:34 32.8 °F /  0.4 °C 30.2 °F /  -1 °C 30.27in /  1024.9hPa Calm     90% 0.00in /  0mm
21:39 32.7 °F /  0.4 °C 30.1 °F /  -1.1 °C 30.27in /  1024.9hPa Calm     90% 0.00in /  0mm
21:49 32.7 °F /  0.4 °C 30.1 °F /  -1.1 °C 30.27in /  1024.9hPa Calm     90% 0.00in /  0mm
21:54 32.8 °F /  0.4 °C 30.2 °F /  -1 °C 30.27in /  1024.9hPa Calm     90% 0.00in /  0mm
21:59 32.5 °F /  0.3 °C 29.9 °F /  -1.2 °C 30.27in /  1024.9hPa Calm     90% 0.00in /  0mm
22:04 32.6 °F /  0.3 °C 30.0 °F /  -1.1 °C 30.27in /  1024.9hPa Calm     90% 0.00in /  0mm
22:09 32.4 °F /  0.2 °C 29.8 °F /  -1.2 °C 30.27in /  1024.9hPa Calm     90% 0.00in /  0mm
22:19 32.1 °F /  0.1 °C 29.5 °F /  -1.4 °C 30.27in /  1024.9hPa Calm     90% 0.00in /  0mm
22:24 32.5 °F /  0.3 °C 30.2 °F /  -1 °C 30.27in /  1024.9hPa Calm     91% 0.00in /  0mm
22:29 32.7 °F /  0.4 °C 30.1 °F /  -1.1 °C 30.27in /  1024.9hPa Calm     90% 0.00in /  0mm
22:34 32.3 °F /  0.2 °C 29.7 °F /  -1.3 °C 30.27in /  1024.9hPa Calm     90% 0.00in /  0mm
22:39 32.1 °F /  0.1 °C 29.5 °F /  -1.4 °C 30.27in /  1024.9hPa Calm     90% 0.00in /  0mm
22:44 32.0 °F /  0 °C 29.4 °F /  -1.4 °C 30.28in /  1025.3hPa Calm     90% 0.00in /  0mm
22:49 31.7 °F /  -0.2 °C 29.1 °F /  -1.6 °C 30.28in /  1025.3hPa Calm     90% 0.00in /  0mm
22:54 31.5 °F /  -0.3 °C 28.9 °F /  -1.7 °C 30.28in /  1025.3hPa Calm     90% 0.00in /  0mm
22:59 31.3 °F /  -0.4 °C 28.7 °F /  -1.8 °C 30.28in /  1025.3hPa Calm     90% 0.00in /  0mm
23:04 31.3 °F /  -0.4 °C 28.7 °F /  -1.8 °C 30.28in /  1025.3hPa Calm     90% 0.00in /  0mm
23:09 31.2 °F /  -0.4 °C 28.6 °F /  -1.9 °C 30.28in /  1025.3hPa Calm     90% 0.00in /  0mm
23:14 31.1 °F /  -0.5 °C 28.8 °F /  -1.8 °C 30.28in /  1025.3hPa Calm     91% 0.00in /  0mm
23:19 31.3 °F /  -0.4 °C 29.0 °F /  -1.7 °C 30.28in /  1025.3hPa Calm     91% 0.00in /  0mm
23:24 31.5 °F /  -0.3 °C 29.2 °F /  -1.6 °C 30.28in /  1025.3hPa Calm     91% 0.00in /  0mm
23:29 31.7 °F /  -0.2 °C 29.4 °F /  -1.4 °C 30.28in /  1025.3hPa Calm     91% 0.00in /  0mm
23:34 32.0 °F /  0 °C 29.7 °F /  -1.3 °C 30.28in /  1025.3hPa Calm     91% 0.00in /  0mm
23:39 31.9 °F /  -0.1 °C 29.6 °F /  -1.3 °C 30.28in /  1025.3hPa Calm     91% 0.00in /  0mm
23:44 31.4 °F /  -0.3 °C 28.8 °F /  -1.8 °C 30.28in /  1025.3hPa Calm     90% 0.00in /  0mm
23:49 30.8 °F /  -0.7 °C 28.5 °F /  -1.9 °C 30.28in /  1025.3hPa Calm     91% 0.00in /  0mm
23:54 30.5 °F /  -0.8 °C 28.2 °F /  -2.1 °C 30.28in /  1025.3hPa Calm     91% 0.00in /  0mm
23:59 30.2 °F /  -1 °C 27.6 °F /  -2.4 °C 30.28in /  1025.3hPa Calm     90% 0.00in /  0mm
Buffalo, New York, USA
Compliments of Weather Underground - 2.25 mb